createdAt,value
2022-11-23T00:02:03.796Z,2.60
2022-11-23T00:04:33.640Z,2.60
2022-11-23T00:07:03.395Z,2.90
2022-11-23T00:09:35.658Z,2.45
2022-11-23T00:12:05.313Z,2.67
2022-11-23T00:14:35.417Z,2.58
2022-11-23T00:17:05.032Z,3.00
2022-11-23T00:19:34.684Z,2.30
2022-11-23T00:22:04.372Z,2.40
2022-11-23T00:24:36.565Z,2.70
2022-11-23T00:27:06.409Z,2.30
2022-11-23T00:29:35.981Z,2.50
2022-11-23T00:32:05.616Z,2.70
2022-11-23T00:34:35.268Z,2.38
2022-11-23T00:37:04.839Z,2.30
2022-11-23T00:39:37.018Z,2.20
2022-11-23T00:42:06.916Z,2.20
2022-11-23T00:44:36.746Z,2.17
2022-11-23T00:47:06.428Z,2.15
2022-11-23T00:49:37.662Z,2.40
2022-11-23T00:52:07.852Z,2.03
2022-11-23T00:54:40.060Z,2.17
2022-11-23T00:57:09.730Z,2.03
2022-11-23T00:59:39.395Z,2.55
2022-11-23T01:02:08.985Z,2.08
2022-11-23T01:04:38.567Z,2.00
2022-11-23T01:07:08.226Z,1.92
2022-11-23T01:09:40.409Z,1.90
2022-11-23T01:12:10.194Z,1.70
2022-11-23T01:14:39.756Z,1.95
2022-11-23T01:17:09.303Z,2.25
2022-11-23T01:19:38.905Z,1.80
2022-11-23T01:22:08.604Z,1.52
2022-11-23T01:24:40.801Z,1.58
2022-11-23T01:27:12.023Z,2.00
2022-11-23T01:29:41.585Z,1.98
2022-11-23T01:32:11.227Z,1.88
2022-11-23T01:34:41.194Z,1.80
2022-11-23T01:37:10.749Z,2.17
2022-11-23T01:39:43.027Z,1.90
2022-11-23T01:42:17.583Z,1.95
2022-11-23T01:44:47.530Z,1.85
2022-11-23T01:47:17.836Z,1.80
2022-11-23T01:49:49.775Z,2.10
2022-11-23T01:52:21.022Z,2.03
2022-11-23T01:54:55.828Z,2.13
2022-11-23T01:57:28.773Z,1.75
2022-11-23T01:59:59.520Z,1.83
2022-11-23T02:02:30.471Z,1.90
2022-11-23T02:05:00.817Z,1.98
2022-11-23T02:07:31.369Z,2.00
2022-11-23T02:10:04.255Z,1.77
2022-11-23T02:12:33.900Z,2.05
2022-11-23T02:15:06.530Z,1.80
2022-11-23T02:17:36.313Z,2.13
2022-11-23T02:20:07.821Z,2.15
2022-11-23T02:22:42.324Z,1.98
2022-11-23T02:25:21.710Z,2.00
2022-11-23T02:27:53.971Z,2.10
2022-11-23T02:30:23.545Z,1.85
2022-11-23T02:32:56.380Z,2.13
2022-11-23T02:35:27.930Z,1.58
2022-11-23T02:37:57.491Z,2.05
2022-11-23T02:40:30.984Z,2.00
2022-11-23T02:43:03.834Z,2.70
2022-11-23T02:45:39.060Z,2.17
2022-11-23T02:48:08.909Z,2.30
2022-11-23T02:50:41.178Z,2.25
2022-11-23T02:53:11.038Z,2.25
2022-11-23T02:55:40.902Z,2.58
2022-11-23T02:58:13.097Z,2.20
2022-11-23T03:00:42.816Z,2.53
2022-11-23T03:03:12.484Z,2.30
2022-11-23T03:05:42.925Z,2.42
2022-11-23T03:08:12.558Z,2.50
2022-11-23T03:10:43.050Z,2.20
2022-11-23T03:13:16.323Z,1.83
2022-11-23T03:15:46.416Z,2.22
2022-11-23T03:18:16.387Z,2.33
2022-11-23T03:20:46.523Z,2.55
2022-11-23T03:23:16.075Z,2.10
2022-11-23T03:25:46.837Z,2.50
2022-11-23T03:28:21.005Z,2.50
2022-11-23T03:30:50.612Z,2.80
2022-11-23T03:33:20.863Z,2.90
2022-11-23T03:35:51.287Z,2.80
2022-11-23T03:38:23.819Z,2.75
2022-11-23T03:40:54.772Z,2.70
2022-11-23T03:43:43.603Z,2.85
2022-11-23T03:46:13.194Z,2.83
2022-11-23T03:48:43.481Z,2.97
2022-11-23T03:51:13.448Z,2.90
2022-11-23T03:53:43.084Z,4.70
2022-11-23T03:56:13.018Z,3.20
2022-11-23T03:58:49.549Z,3.42
2022-11-23T04:01:19.293Z,2.90
2022-11-23T04:03:52.759Z,3.10
2022-11-23T04:06:27.959Z,3.10
2022-11-23T04:09:23.496Z,3.45
2022-11-23T04:14:50.524Z,2.90
2022-11-23T04:17:20.806Z,2.70
2022-11-23T04:19:50.934Z,2.70
2022-11-23T04:22:20.804Z,2.55
2022-11-23T04:24:50.938Z,2.70
2022-11-23T04:27:22.268Z,6.28
2022-11-23T04:29:54.455Z,3.20
2022-11-23T04:32:24.018Z,2.42
2022-11-23T04:34:53.699Z,3.05
2022-11-23T04:37:24.005Z,2.90
2022-11-23T04:39:53.552Z,3.05
2022-11-23T04:42:28.330Z,2.30
2022-11-23T04:45:03.811Z,4.85
2022-11-23T04:47:33.744Z,2.38
2022-11-23T04:50:08.275Z,2.40
2022-11-23T04:52:37.836Z,2.10
2022-11-23T04:57:50.196Z,2.45
2022-11-23T05:00:23.201Z,2.25
2022-11-23T05:02:52.805Z,2.65
2022-11-23T05:05:26.451Z,2.65
2022-11-23T05:07:56.937Z,2.67
2022-11-23T05:10:29.445Z,2.05
2022-11-23T05:13:01.671Z,2.58
2022-11-23T05:15:35.178Z,2.65
2022-11-23T05:18:10.578Z,2.85
2022-11-23T05:20:41.006Z,2.38
2022-11-23T05:23:11.216Z,3.13
2022-11-23T05:25:44.052Z,2.47
2022-11-23T05:28:38.939Z,2.95
2022-11-23T05:31:12.184Z,2.65
2022-11-23T05:33:41.837Z,2.55
2022-11-23T05:36:13.989Z,3.15
2022-11-23T05:38:45.128Z,2.38
2022-11-23T05:41:24.165Z,2.60
2022-11-23T05:43:57.786Z,2.85
2022-11-23T05:46:33.087Z,3.22
2022-11-23T05:49:03.288Z,2.47
2022-11-23T05:51:37.782Z,2.92
2022-11-23T05:54:07.944Z,2.63
2022-11-23T05:56:42.569Z,3.72
2022-11-23T05:59:17.805Z,2.60
2022-11-23T06:01:55.139Z,2.60
2022-11-23T06:04:30.561Z,2.70
2022-11-23T06:07:01.799Z,2.60
2022-11-23T06:09:39.653Z,2.90
2022-11-23T06:12:12.212Z,2.30
2022-11-23T06:14:41.790Z,2.72
2022-11-23T06:17:13.994Z,2.90
2022-11-23T06:19:49.824Z,3.05
2022-11-23T06:22:20.196Z,2.90
2022-11-23T06:25:03.527Z,2.72
2022-11-23T06:27:41.712Z,2.70
2022-11-23T06:30:19.393Z,2.50
2022-11-23T06:32:52.987Z,2.13
2022-11-23T06:35:25.019Z,2.30
2022-11-23T06:37:54.961Z,2.38
2022-11-23T06:40:33.227Z,2.88
2022-11-23T06:43:03.469Z,2.83
2022-11-23T06:45:45.527Z,2.72
2022-11-23T06:48:20.370Z,2.55
2022-11-23T06:50:51.348Z,2.63
2022-11-23T06:53:23.171Z,2.50
2022-11-23T06:56:01.321Z,2.13
2022-11-23T07:01:04.465Z,2.10
2022-11-23T07:03:42.591Z,2.05
2022-11-23T07:06:23.031Z,2.28
2022-11-23T07:08:57.783Z,2.30
2022-11-23T07:11:56.359Z,2.70
2022-11-23T07:14:25.978Z,1.90
2022-11-23T07:16:58.238Z,2.47
2022-11-23T07:19:30.663Z,2.65
2022-11-23T07:22:02.308Z,2.33
2022-11-23T07:24:38.723Z,2.42
2022-11-23T07:27:10.795Z,2.78
2022-11-23T07:29:41.850Z,2.67
2022-11-23T07:32:11.424Z,3.00
2022-11-23T07:34:44.791Z,2.40
2022-11-23T07:37:15.957Z,1.83
2022-11-23T07:39:57.275Z,2.40
2022-11-23T07:42:35.715Z,2.65
2022-11-23T07:45:07.799Z,2.90
2022-11-23T07:47:40.555Z,2.80
2022-11-23T07:50:14.846Z,2.63
2022-11-23T07:55:13.735Z,3.05
2022-11-23T07:57:43.278Z,2.90
2022-11-23T08:00:14.139Z,3.42
2022-11-23T08:02:58.164Z,3.25
2022-11-23T08:05:37.118Z,3.25
2022-11-23T08:08:07.095Z,3.20
2022-11-23T08:10:41.932Z,2.78
2022-11-23T08:13:13.891Z,3.30
2022-11-23T08:15:44.924Z,3.20
2022-11-23T08:18:17.148Z,2.80
2022-11-23T08:20:49.274Z,2.30
2022-11-23T08:23:18.822Z,2.83
2022-11-23T08:25:48.402Z,2.70
2022-11-23T08:28:18.047Z,2.95
2022-11-23T08:30:48.073Z,2.58
2022-11-23T08:33:17.813Z,2.78
2022-11-23T08:35:49.956Z,2.47
2022-11-23T08:38:19.478Z,3.00
2022-11-23T08:40:49.035Z,2.90
2022-11-23T08:43:18.529Z,2.60
2022-11-23T08:45:48.141Z,2.45
2022-11-23T08:48:17.658Z,2.92
2022-11-23T08:50:49.869Z,3.20
2022-11-23T08:53:19.525Z,2.50
2022-11-23T08:55:49.151Z,4.20
2022-11-23T08:58:18.693Z,3.15
2022-11-23T09:00:48.253Z,2.95
2022-11-23T09:03:17.808Z,2.63
2022-11-23T09:05:51.160Z,2.60
2022-11-23T09:08:20.730Z,3.08
2022-11-23T09:10:50.266Z,2.70
2022-11-23T09:13:19.904Z,2.83
2022-11-23T09:15:49.435Z,3.05
2022-11-23T09:18:18.985Z,2.97
2022-11-23T09:20:51.095Z,3.20
2022-11-23T09:23:20.620Z,2.50
2022-11-23T09:25:50.551Z,2.78
2022-11-23T09:28:20.189Z,2.42
2022-11-23T09:30:49.987Z,2.70
2022-11-23T09:33:19.599Z,3.30
2022-11-23T09:35:59.525Z,3.00
2022-11-23T09:38:54.683Z,2.78
2022-11-23T09:41:33.681Z,2.80
2022-11-23T09:44:05.472Z,3.03
2022-11-23T09:46:40.418Z,2.75
2022-11-23T09:49:15.491Z,2.70
2022-11-23T09:51:48.344Z,2.60
2022-11-23T09:54:26.255Z,3.13
2022-11-23T09:57:01.696Z,3.35
2022-11-23T09:59:42.351Z,3.33
2022-11-23T10:02:21.475Z,2.95
2022-11-23T10:04:51.365Z,3.03
2022-11-23T10:07:46.594Z,3.03
2022-11-23T10:10:29.829Z,2.85
2022-11-23T10:13:09.029Z,3.15
2022-11-23T10:15:54.280Z,3.00
2022-11-23T10:18:30.764Z,3.13
2022-11-23T10:21:07.127Z,2.92
2022-11-23T10:23:50.179Z,3.13
2022-11-23T10:26:21.337Z,2.60
2022-11-23T10:28:51.320Z,2.50
2022-11-23T10:31:23.367Z,2.63
2022-11-23T10:33:58.442Z,3.13
2022-11-23T10:36:28.089Z,2.65
2022-11-23T10:39:01.613Z,2.53
2022-11-23T10:41:32.559Z,3.00
2022-11-23T10:44:08.632Z,3.25
2022-11-23T10:46:42.215Z,2.75
2022-11-23T10:49:16.333Z,3.05
2022-11-23T10:54:27.674Z,2.85
2022-11-23T10:56:58.299Z,3.03
2022-11-23T10:59:36.739Z,2.70
2022-11-23T11:02:21.717Z,2.20
2022-11-23T11:04:58.429Z,2.33
2022-11-23T11:07:30.781Z,2.08
2022-11-23T11:10:04.605Z,2.28
2022-11-23T11:12:36.520Z,2.42
2022-11-23T11:15:18.368Z,2.40
2022-11-23T11:17:57.757Z,1.98
2022-11-23T11:20:33.978Z,2.75
2022-11-23T11:23:05.888Z,2.28
2022-11-23T11:25:40.940Z,2.50
2022-11-23T11:28:23.248Z,2.70
2022-11-23T11:31:01.278Z,2.70
2022-11-23T11:33:36.402Z,3.08
2022-11-23T11:36:07.682Z,2.55
2022-11-23T11:38:38.933Z,2.67
2022-11-23T11:41:12.478Z,2.75
2022-11-23T11:43:45.553Z,2.67
2022-11-23T11:46:33.439Z,2.80
2022-11-23T11:49:08.518Z,2.85
2022-11-23T11:51:42.152Z,2.40
2022-11-23T11:54:19.139Z,2.47
2022-11-23T11:56:53.568Z,2.40
2022-11-23T11:59:27.422Z,2.60
2022-11-23T12:02:00.440Z,2.80
2022-11-23T12:04:38.450Z,2.60
2022-11-23T12:07:11.425Z,2.22
2022-11-23T12:09:44.834Z,3.03
2022-11-23T12:12:19.458Z,2.83
2022-11-23T12:14:49.430Z,2.60
2022-11-23T12:17:47.535Z,2.65
2022-11-23T12:20:22.562Z,2.72
2022-11-23T12:23:03.202Z,2.60
2022-11-23T12:25:36.851Z,2.60
2022-11-23T12:28:26.009Z,2.58
2022-11-23T12:31:03.742Z,2.60
2022-11-23T12:33:57.592Z,2.67
2022-11-23T12:36:39.435Z,2.87
2022-11-23T12:39:18.976Z,2.60
2022-11-23T12:41:52.387Z,2.58
2022-11-23T12:44:52.211Z,2.80
2022-11-23T12:47:30.201Z,2.20
2022-11-23T12:50:10.140Z,2.10
2022-11-23T12:52:49.782Z,2.60
2022-11-23T12:55:23.283Z,2.22
2022-11-23T12:57:56.908Z,2.10
2022-11-23T13:00:34.039Z,2.25
2022-11-23T13:03:24.440Z,2.28
2022-11-23T13:06:04.804Z,2.50
2022-11-23T13:08:59.445Z,2.35
2022-11-23T13:11:37.956Z,2.70
2022-11-23T13:14:17.053Z,2.60
2022-11-23T13:16:58.702Z,2.38
2022-11-23T13:19:43.346Z,1.80
2022-11-23T13:22:17.828Z,2.00
2022-11-23T13:25:04.288Z,2.33
2022-11-23T13:27:45.198Z,2.00
2022-11-23T13:30:51.938Z,2.25
2022-11-23T13:33:39.563Z,2.17
2022-11-23T13:36:19.599Z,2.50
2022-11-23T13:38:49.426Z,2.60
2022-11-23T13:41:58.373Z,2.58
2022-11-23T13:44:30.599Z,2.90
2022-11-23T13:47:04.199Z,2.70
2022-11-23T13:49:43.491Z,3.00
2022-11-23T13:52:40.362Z,2.65
2022-11-23T13:55:22.141Z,3.00
2022-11-23T13:58:21.720Z,2.78
2022-11-23T14:00:52.991Z,3.08
2022-11-23T14:03:57.458Z,2.80
2022-11-23T14:06:44.911Z,3.10
2022-11-23T14:09:19.344Z,3.47
2022-11-23T14:11:59.011Z,3.13
2022-11-23T14:14:33.226Z,3.67
2022-11-23T14:17:32.486Z,3.70
2022-11-23T14:20:16.687Z,3.17
2022-11-23T14:23:00.971Z,2.80
2022-11-23T14:25:43.348Z,3.15
2022-11-23T14:28:24.022Z,3.00
2022-11-23T14:31:05.311Z,3.00
2022-11-23T14:33:39.762Z,3.33
2022-11-23T14:36:18.704Z,3.03
2022-11-23T14:39:03.476Z,3.08
2022-11-23T14:41:36.738Z,3.00
2022-11-23T14:44:07.630Z,3.00
2022-11-23T14:46:37.238Z,3.05
2022-11-23T14:49:08.638Z,2.72
2022-11-23T14:51:38.643Z,2.95
2022-11-23T14:54:13.980Z,2.83
2022-11-23T14:56:46.712Z,3.13
2022-11-23T14:59:22.584Z,2.78
2022-11-23T15:01:53.994Z,3.45
2022-11-23T15:04:29.297Z,3.03
2022-11-23T15:07:01.173Z,2.70
2022-11-23T15:09:42.810Z,3.30
2022-11-23T15:12:23.942Z,2.50
2022-11-23T15:14:54.118Z,2.50
2022-11-23T15:17:24.841Z,2.40
2022-11-23T15:19:58.967Z,3.10
2022-11-23T15:25:09.106Z,2.72
2022-11-23T15:27:41.746Z,2.90
2022-11-23T15:30:19.238Z,2.50
2022-11-23T15:32:58.024Z,2.38
2022-11-23T15:35:33.118Z,2.60
2022-11-23T15:38:03.697Z,2.53
2022-11-23T15:40:38.954Z,2.70
2022-11-23T15:43:08.470Z,3.03
2022-11-23T15:45:39.777Z,2.85
2022-11-23T15:48:12.900Z,3.13
2022-11-23T15:50:50.648Z,3.40
2022-11-23T15:53:20.294Z,3.40
2022-11-23T15:55:52.786Z,3.38
2022-11-23T15:58:23.270Z,3.03
2022-11-23T16:00:54.814Z,2.90
2022-11-23T16:03:31.842Z,3.33
2022-11-23T16:06:20.246Z,3.15
2022-11-23T16:08:49.786Z,3.75
2022-11-23T16:11:31.482Z,3.65
2022-11-23T16:14:17.051Z,4.07
2022-11-23T16:16:48.084Z,3.47
2022-11-23T16:19:26.274Z,3.47
2022-11-23T16:22:02.514Z,3.70
2022-11-23T16:24:33.769Z,4.13
2022-11-23T16:27:15.080Z,3.65
2022-11-23T16:29:44.752Z,3.50
2022-11-23T16:32:25.098Z,4.25
2022-11-23T16:34:54.999Z,3.63
2022-11-23T16:37:26.371Z,3.92
2022-11-23T16:39:56.041Z,3.90
2022-11-23T16:42:28.272Z,3.85
2022-11-23T16:44:57.917Z,3.83
2022-11-23T16:47:30.080Z,3.42
2022-11-23T16:50:00.049Z,3.20
2022-11-23T16:52:29.637Z,3.22
2022-11-23T16:54:59.196Z,3.30
2022-11-23T16:57:34.393Z,3.60
2022-11-23T17:00:05.759Z,4.43
2022-11-23T17:02:35.573Z,3.63
2022-11-23T17:05:05.183Z,4.07
2022-11-23T17:07:34.782Z,3.80
2022-11-23T17:10:04.351Z,3.95
2022-11-23T17:12:37.518Z,3.63
2022-11-23T17:15:08.525Z,4.22
2022-11-23T17:17:38.086Z,3.40
2022-11-23T17:20:08.697Z,3.80
2022-11-23T17:22:38.251Z,3.42
2022-11-23T17:25:14.299Z,3.90
2022-11-23T17:27:47.964Z,4.57
2022-11-23T17:30:20.755Z,4.05
2022-11-23T17:32:50.444Z,4.05
2022-11-23T17:35:20.381Z,4.60
2022-11-23T17:37:50.162Z,4.15
2022-11-23T17:40:21.092Z,4.70
2022-11-23T17:42:53.245Z,5.47
2022-11-23T17:45:22.805Z,5.35
2022-11-23T17:47:52.475Z,4.70
2022-11-23T17:50:23.716Z,4.85
2022-11-23T17:52:53.269Z,5.07
2022-11-23T17:55:22.810Z,5.80
2022-11-23T17:57:54.947Z,5.90
2022-11-23T18:00:25.401Z,5.72
2022-11-23T18:02:54.980Z,5.88
2022-11-23T18:05:24.509Z,6.25
2022-11-23T18:07:54.087Z,5.70
2022-11-23T18:10:23.794Z,5.40
2022-11-23T18:12:57.780Z,5.43
2022-11-23T18:15:27.490Z,5.57
2022-11-23T18:18:01.634Z,5.97
2022-11-23T18:20:34.353Z,6.20
2022-11-23T18:23:03.953Z,5.90
2022-11-23T18:25:33.492Z,5.60
2022-11-23T18:28:05.603Z,5.60
2022-11-23T18:30:35.270Z,5.40
2022-11-23T18:33:04.817Z,5.47
2022-11-23T18:35:34.595Z,5.55
2022-11-23T18:38:04.138Z,5.63
2022-11-23T18:40:33.678Z,5.60
2022-11-23T18:43:05.805Z,5.03
2022-11-23T18:45:35.378Z,5.45
2022-11-23T18:48:05.054Z,5.03
2022-11-23T18:50:34.598Z,5.00
2022-11-23T18:53:04.177Z,4.60
2022-11-23T18:55:33.735Z,4.60
2022-11-23T18:58:06.822Z,4.47
2022-11-23T19:00:36.432Z,5.10
2022-11-23T19:03:07.197Z,5.43
2022-11-23T19:05:37.592Z,4.55
2022-11-23T19:08:12.479Z,4.60
2022-11-23T19:10:42.076Z,4.70
2022-11-23T19:13:14.195Z,5.00
2022-11-23T19:15:43.779Z,7.65
2022-11-23T19:18:13.391Z,7.25
2022-11-23T19:20:43.015Z,9.23
2022-11-23T19:23:12.845Z,5.15
2022-11-23T19:25:42.359Z,4.97
2022-11-23T19:28:14.476Z,4.68
2022-11-23T19:30:44.132Z,4.78
2022-11-23T19:33:13.785Z,5.28
2022-11-23T19:35:43.342Z,6.10
2022-11-23T19:38:12.980Z,6.70
2022-11-23T19:40:42.489Z,7.25
2022-11-23T19:43:14.590Z,6.90
2022-11-23T19:45:44.215Z,6.22
2022-11-23T19:48:13.902Z,4.95
2022-11-23T19:50:43.467Z,6.70
2022-11-23T19:53:13.398Z,8.27
2022-11-23T19:55:43.052Z,6.60
2022-11-23T19:58:16.803Z,5.82
2022-11-23T20:00:47.023Z,5.00
2022-11-23T20:03:17.534Z,7.03
2022-11-23T20:05:57.142Z,5.60
2022-11-23T20:08:27.155Z,5.97
2022-11-23T20:10:56.879Z,6.15
2022-11-23T20:13:29.131Z,7.13
2022-11-23T20:16:04.633Z,7.00
2022-11-23T20:18:34.231Z,6.60
2022-11-23T20:21:04.558Z,6.25
2022-11-23T20:23:34.069Z,6.30
2022-11-23T20:26:03.837Z,6.25
2022-11-23T20:28:45.766Z,6.70
2022-11-23T20:31:20.595Z,7.50
2022-11-23T20:33:50.735Z,6.60
2022-11-23T20:36:21.847Z,7.07
2022-11-23T20:38:52.186Z,7.45
2022-11-23T20:41:24.574Z,6.32
2022-11-23T20:43:58.607Z,6.45
2022-11-23T20:46:59.866Z,7.70
2022-11-23T20:49:19.953Z,7.20
2022-11-23T20:51:49.509Z,8.02
2022-11-23T20:54:19.054Z,8.27
2022-11-23T20:56:48.603Z,9.85
2022-11-23T20:59:20.828Z,10.35
2022-11-23T21:01:50.448Z,9.38
2022-11-23T21:04:20.100Z,10.15
2022-11-23T21:06:49.653Z,9.60
2022-11-23T21:09:19.758Z,10.43
2022-11-23T21:12:01.772Z,12.02
2022-11-23T21:14:34.790Z,15.93
2022-11-23T21:17:04.447Z,10.35
2022-11-23T21:19:35.230Z,10.68
2022-11-23T21:22:07.275Z,10.93
2022-11-23T21:24:37.579Z,11.13
2022-11-23T21:27:08.761Z,9.15
2022-11-23T21:29:40.999Z,10.15
2022-11-23T21:32:10.612Z,9.90
2022-11-23T21:34:40.254Z,10.15
2022-11-23T21:37:12.764Z,9.50
2022-11-23T21:39:43.788Z,9.73
2022-11-23T21:42:15.081Z,9.65
2022-11-23T21:44:47.319Z,12.20
2022-11-23T21:47:16.969Z,10.98
2022-11-23T21:49:47.208Z,10.35
2022-11-23T21:52:17.024Z,9.85
2022-11-23T21:54:49.169Z,10.32
2022-11-23T21:57:18.935Z,9.75
2022-11-23T21:59:51.031Z,9.13
2022-11-23T22:02:20.727Z,9.57
2022-11-23T22:04:50.977Z,8.88
2022-11-23T22:07:21.222Z,9.50
2022-11-23T22:09:50.793Z,9.07
2022-11-23T22:12:20.305Z,10.02
2022-11-23T22:14:53.788Z,9.73
2022-11-23T22:17:23.618Z,10.50
2022-11-23T22:19:53.283Z,9.10
2022-11-23T22:22:22.908Z,8.55
2022-11-23T22:24:52.753Z,9.00
2022-11-23T22:27:22.342Z,8.85
2022-11-23T22:29:54.600Z,8.70
2022-11-23T22:32:24.167Z,8.52
2022-11-23T22:34:53.720Z,7.80
2022-11-23T22:37:23.246Z,7.85
2022-11-23T22:39:52.794Z,7.13
2022-11-23T22:42:22.345Z,7.32
2022-11-23T22:44:54.574Z,7.60
2022-11-23T22:47:24.120Z,7.03
2022-11-23T22:49:53.734Z,6.95
2022-11-23T22:52:23.362Z,6.35
2022-11-23T22:54:52.919Z,7.32
2022-11-23T22:57:22.476Z,6.13
2022-11-23T22:59:54.692Z,6.93
2022-11-23T23:02:24.323Z,6.07
2022-11-23T23:04:54.095Z,5.25
2022-11-23T23:07:23.909Z,6.40
2022-11-23T23:09:53.545Z,6.43
2022-11-23T23:12:23.079Z,6.63
2022-11-23T23:14:55.366Z,7.50
2022-11-23T23:17:25.228Z,7.25
2022-11-23T23:19:54.799Z,6.70
2022-11-23T23:22:24.461Z,7.03
2022-11-23T23:24:54.037Z,6.18
2022-11-23T23:27:23.658Z,6.55
2022-11-23T23:29:56.031Z,6.03
2022-11-23T23:32:25.629Z,6.18
2022-11-23T23:34:55.422Z,5.20
2022-11-23T23:37:25.102Z,6.18
2022-11-23T23:39:54.692Z,5.72
2022-11-23T23:42:24.598Z,5.90
2022-11-23T23:44:56.793Z,6.22
2022-11-23T23:47:26.382Z,5.32
2022-11-23T23:49:55.968Z,5.97
2022-11-23T23:52:25.501Z,5.72
2022-11-23T23:54:55.152Z,5.32
2022-11-23T23:57:24.705Z,5.82
2022-11-23T23:59:56.863Z,5.95
